createdAt,value
2018-09-28T00:03:29.484Z,101602.41
2018-09-28T00:08:31.645Z,101611.66
2018-09-28T00:13:33.832Z,101570.00
2018-09-28T00:18:36.115Z,101617.66
2018-09-28T00:23:38.265Z,101626.14
2018-09-28T00:28:40.414Z,101629.08
2018-09-28T00:33:42.561Z,101630.09
2018-09-28T00:38:44.727Z,101639.95
2018-09-28T00:43:46.850Z,101637.06
2018-09-28T00:48:48.958Z,101638.16
2018-09-28T00:53:51.091Z,101647.14
2018-09-28T00:58:53.213Z,101656.44
2018-09-28T01:03:55.420Z,101655.86
2018-09-28T01:08:57.579Z,101658.50
2018-09-28T01:13:59.747Z,101673.61
2018-09-28T01:19:01.894Z,101678.22
2018-09-28T01:24:04.084Z,101684.03
2018-09-28T01:29:06.221Z,101686.27
2018-09-28T01:34:08.376Z,101684.25
2018-09-28T01:39:10.679Z,101687.70
2018-09-28T01:44:12.907Z,101696.53
2018-09-28T01:49:15.036Z,101695.09
2018-09-28T01:54:17.202Z,101699.93
2018-09-28T01:59:19.311Z,101703.95
2018-09-28T02:04:21.530Z,101703.98
2018-09-28T02:09:24.071Z,101705.89
2018-09-28T02:14:26.227Z,101704.43
2018-09-28T02:19:28.337Z,101715.52
2018-09-28T02:24:30.458Z,101713.95
2018-09-28T02:29:32.611Z,101710.55
2018-09-28T02:34:34.761Z,101723.92
2018-09-28T02:39:36.888Z,101724.80
2018-09-28T02:44:39.022Z,101725.37
2018-09-28T02:49:41.141Z,101733.53
2018-09-28T02:54:43.271Z,101741.50
2018-09-28T02:59:45.414Z,101734.91
2018-09-28T03:04:47.595Z,101734.59
2018-09-28T03:09:49.728Z,101732.44
2018-09-28T03:14:51.888Z,101741.81
2018-09-28T03:19:54.023Z,101740.69
2018-09-28T03:24:56.155Z,101744.30
2018-09-28T03:29:58.317Z,101747.06
2018-09-28T03:35:00.464Z,101755.06
2018-09-28T03:40:02.627Z,101760.59
2018-09-28T03:45:05.247Z,101766.03
2018-09-28T03:50:07.440Z,101770.45
2018-09-28T03:55:09.571Z,101781.05
2018-09-28T04:00:11.716Z,101788.27
2018-09-28T04:05:13.896Z,101793.67
2018-09-28T04:10:16.059Z,101797.92
2018-09-28T04:15:18.238Z,101795.28
2018-09-28T04:20:20.374Z,101799.42
2018-09-28T04:25:22.543Z,101810.17
2018-09-28T04:30:24.685Z,101814.50
2018-09-28T04:35:26.806Z,101820.74
2018-09-28T04:40:28.952Z,101823.16
2018-09-28T04:45:31.175Z,101832.70
2018-09-28T04:50:33.233Z,101847.97
2018-09-28T04:55:35.378Z,101852.31
2018-09-28T05:00:37.562Z,101855.52
2018-09-28T05:05:40.361Z,101855.52
2018-09-28T05:10:42.478Z,101858.34
2018-09-28T05:15:44.645Z,101864.28
2018-09-28T05:20:46.763Z,101874.19
2018-09-28T05:25:48.887Z,101882.39
2018-09-28T05:30:53.968Z,101883.99
2018-09-28T05:35:53.460Z,101878.22
2018-09-28T05:40:55.638Z,101896.69
2018-09-28T05:45:57.795Z,101899.03
2018-09-28T05:51:00.066Z,101908.44
2018-09-28T05:56:02.233Z,101910.83
2018-09-28T06:01:10.161Z,101916.12
2018-09-28T06:06:12.319Z,101913.50
2018-09-28T06:11:14.416Z,101920.31
2018-09-28T06:16:16.617Z,101921.87
2018-09-28T06:21:18.776Z,101926.45
2018-09-28T06:26:20.918Z,101936.14
2018-09-28T06:31:23.047Z,101941.22
2018-09-28T06:36:25.170Z,101938.84
2018-09-28T06:41:27.306Z,101946.14
2018-09-28T06:46:29.564Z,101952.58
2018-09-28T06:51:31.744Z,101969.63
2018-09-28T06:56:33.895Z,101974.97
2018-09-28T07:01:36.044Z,101982.96
2018-09-28T07:06:38.411Z,101989.15
2018-09-28T07:11:41.037Z,101992.84
2018-09-28T07:16:43.430Z,102004.31
2018-09-28T07:21:45.610Z,102011.39
2018-09-28T07:26:47.750Z,102016.67
2018-09-28T07:31:50.122Z,102021.72
2018-09-28T07:36:52.334Z,102029.01
2018-09-28T07:41:54.444Z,102034.78
2018-09-28T07:46:56.594Z,102042.43
2018-09-28T07:51:58.779Z,102040.89
2018-09-28T07:57:00.965Z,102055.25
2018-09-28T08:02:03.145Z,102060.47
2018-09-28T08:07:05.323Z,102059.93
2018-09-28T08:12:07.507Z,102058.73
2018-09-28T08:17:09.740Z,102057.13
2018-09-28T08:22:11.901Z,102061.75
2018-09-28T08:27:14.074Z,102062.08
2018-09-28T08:32:16.263Z,102068.78
2018-09-28T08:37:18.426Z,102080.55
2018-09-28T08:42:20.556Z,102082.25
2018-09-28T08:47:22.715Z,102088.36
2018-09-28T08:52:25.683Z,102095.16
2018-09-28T08:57:27.791Z,102108.60
2018-09-28T09:02:29.951Z,102108.95
2018-09-28T09:07:32.137Z,102117.20
2018-09-28T09:12:34.304Z,102119.45
2018-09-28T09:17:36.657Z,102121.33
2018-09-28T09:22:38.807Z,102116.31
2018-09-28T09:27:41.034Z,102121.13
2018-09-28T09:32:43.154Z,102117.45
2018-09-28T09:37:45.302Z,102120.83
2018-09-28T09:42:47.508Z,102120.52
2018-09-28T09:47:49.671Z,102126.61
2018-09-28T09:52:51.809Z,102135.84
2018-09-28T09:57:53.966Z,102119.64
2018-09-28T10:03:01.061Z,102124.55
2018-09-28T10:08:03.232Z,102135.50
2018-09-28T10:13:06.052Z,102120.75
2018-09-28T10:18:08.259Z,102130.23
2018-09-28T10:23:10.419Z,102144.77
2018-09-28T10:28:12.650Z,102140.11
2018-09-28T10:33:14.747Z,102130.23
2018-09-28T10:38:16.951Z,102135.28
2018-09-28T10:43:19.126Z,102147.02
2018-09-28T10:48:21.294Z,102139.39
2018-09-28T10:53:23.535Z,102142.98
2018-09-28T10:58:25.726Z,102139.13
2018-09-28T11:03:27.951Z,102149.17
2018-09-28T11:08:30.222Z,102143.72
2018-09-28T11:13:32.348Z,102134.09
2018-09-28T11:18:34.514Z,102095.79
2018-09-28T11:23:36.685Z,102139.45
2018-09-28T11:28:38.825Z,102163.55
2018-09-28T11:33:40.999Z,102151.47
2018-09-28T11:38:43.191Z,102139.04
2018-09-28T11:43:45.354Z,102130.77
2018-09-28T11:48:47.550Z,102133.61
2018-09-28T11:53:49.699Z,102132.16
2018-09-28T11:58:52.961Z,102141.71
2018-09-28T12:03:55.198Z,102142.80
2018-09-28T12:08:57.370Z,102158.70
2018-09-28T12:13:59.532Z,102162.64
2018-09-28T12:19:01.734Z,102152.09
2018-09-28T12:24:03.906Z,102150.78
2018-09-28T12:29:06.099Z,102146.31
2018-09-28T12:34:08.371Z,102164.86
2018-09-28T12:39:11.668Z,102155.77
2018-09-28T12:44:13.759Z,102149.86
2018-09-28T12:49:16.547Z,102149.83
2018-09-28T12:54:18.714Z,102156.33
2018-09-28T12:59:20.915Z,102151.52
2018-09-28T13:04:23.121Z,102163.16
2018-09-28T13:09:25.277Z,102159.55
2018-09-28T13:14:27.555Z,102159.50
2018-09-28T13:19:29.649Z,102162.95
2018-09-28T13:24:31.805Z,102167.72
2018-09-28T13:29:33.968Z,102175.30
2018-09-28T13:34:36.432Z,102183.36
2018-09-28T13:39:38.615Z,102172.83
2018-09-28T13:44:40.802Z,102191.47
2018-09-28T13:49:42.917Z,102177.45
2018-09-28T13:54:45.100Z,102176.89
2018-09-28T13:59:47.255Z,102179.34
2018-09-28T14:04:49.551Z,102175.48
2018-09-28T14:09:51.674Z,102174.98
2018-09-28T14:14:53.878Z,102174.44
2018-09-28T14:19:56.119Z,102179.03
2018-09-28T14:24:58.297Z,102174.65
2018-09-28T14:30:00.447Z,102180.35
2018-09-28T14:35:02.676Z,102184.70
2018-09-28T14:40:05.040Z,102187.48
2018-09-28T14:45:07.980Z,102188.88
2018-09-28T14:50:10.456Z,102193.56
2018-09-28T14:55:12.595Z,102194.66
2018-09-28T15:00:14.905Z,102199.31
2018-09-28T15:05:17.072Z,102163.45
2018-09-28T15:10:20.657Z,102195.67
2018-09-28T15:15:23.118Z,102195.81
2018-09-28T15:20:25.360Z,102202.67
2018-09-28T15:25:27.519Z,102203.11
2018-09-28T15:30:29.695Z,102212.56
2018-09-28T15:35:31.899Z,102231.50
2018-09-28T15:40:34.069Z,102233.31
2018-09-28T15:45:36.315Z,102251.11
2018-09-28T15:50:38.476Z,102262.53
2018-09-28T15:55:40.662Z,102259.35
2018-09-28T16:00:42.847Z,102258.53
2018-09-28T16:05:45.014Z,102262.06
2018-09-28T16:10:47.192Z,102266.82
2018-09-28T16:15:49.685Z,102276.10
2018-09-28T16:20:52.064Z,102286.88
2018-09-28T16:25:54.287Z,102289.14
2018-09-28T16:30:56.440Z,102288.41
2018-09-28T16:35:58.630Z,102311.03
2018-09-28T16:41:00.810Z,102311.17
2018-09-28T16:46:03.010Z,102306.84
2018-09-28T16:51:05.163Z,102312.08
2018-09-28T16:56:07.410Z,102324.20
2018-09-28T17:01:09.571Z,102327.94
2018-09-28T17:06:11.751Z,102330.06
2018-09-28T17:11:13.952Z,102345.73
2018-09-28T17:16:16.140Z,102350.44
2018-09-28T17:21:18.410Z,102349.27
2018-09-28T17:26:20.888Z,102361.48
2018-09-28T17:31:23.226Z,102357.76
2018-09-28T17:36:25.403Z,102373.01
2018-09-28T17:41:27.717Z,102379.53
2018-09-28T17:46:29.841Z,102380.97
2018-09-28T17:51:32.044Z,102381.12
2018-09-28T17:56:34.268Z,102386.28
2018-09-28T18:01:36.464Z,102386.09
2018-09-28T18:06:38.670Z,102388.86
2018-09-28T18:11:40.848Z,102389.92
2018-09-28T18:16:43.025Z,102394.15
2018-09-28T18:21:45.706Z,102398.19
2018-09-28T18:26:47.878Z,102408.20
2018-09-28T18:31:50.133Z,102404.92
2018-09-28T18:36:52.351Z,102414.38
2018-09-28T18:41:54.629Z,102426.58
2018-09-28T18:46:57.008Z,102436.13
2018-09-28T18:51:59.252Z,102430.22
2018-09-28T18:57:01.523Z,102438.78
2018-09-28T19:02:03.802Z,102435.44
2018-09-28T19:07:06.193Z,102435.69
2018-09-28T19:12:08.667Z,102445.06
2018-09-28T19:17:10.943Z,102445.27
2018-09-28T19:22:13.408Z,102448.38
2018-09-28T19:27:15.695Z,102457.44
2018-09-28T19:32:18.252Z,102465.11
2018-09-28T19:37:20.564Z,102468.27
2018-09-28T19:42:22.897Z,102471.59
2018-09-28T19:47:25.268Z,102463.08
2018-09-28T19:52:27.584Z,102475.25
2018-09-28T19:57:30.883Z,102478.78
2018-09-28T20:02:33.112Z,102484.30
2018-09-28T20:07:35.537Z,102488.77
2018-09-28T20:12:37.724Z,102498.56
2018-09-28T20:17:39.941Z,102492.88
2018-09-28T20:22:42.210Z,102499.59
2018-09-28T20:27:44.437Z,102508.47
2018-09-28T20:32:46.712Z,102514.37
2018-09-28T20:37:49.002Z,102517.22
2018-09-28T20:42:51.229Z,102524.16
2018-09-28T20:47:53.744Z,102527.48
2018-09-28T20:52:55.953Z,102535.20
2018-09-28T20:57:58.148Z,102532.86
2018-09-28T21:03:00.379Z,102541.72
2018-09-28T21:08:02.546Z,102530.81
2018-09-28T21:13:04.716Z,102544.66
2018-09-28T21:18:06.864Z,102547.97
2018-09-28T21:23:09.109Z,102553.41
2018-09-28T21:28:11.329Z,102557.87
2018-09-28T21:33:13.485Z,102474.15
2018-09-28T21:38:15.732Z,102566.99
2018-09-28T21:43:18.100Z,102571.31
2018-09-28T21:48:20.264Z,102566.01
2018-09-28T21:53:22.449Z,102563.56
2018-09-28T21:58:24.558Z,102563.86
2018-09-28T22:03:26.792Z,102556.86
2018-09-28T22:08:28.988Z,102564.06
2018-09-28T22:13:31.411Z,102563.00
2018-09-28T22:18:33.575Z,102561.15
2018-09-28T22:23:35.756Z,102548.69
2018-09-28T22:28:37.926Z,102548.59
2018-09-28T22:33:40.104Z,102550.45
2018-09-28T22:38:42.265Z,102543.24
2018-09-28T22:43:44.474Z,102547.33
2018-09-28T22:48:46.562Z,102562.22
2018-09-28T22:53:48.713Z,102567.06
2018-09-28T22:58:50.940Z,102573.99
2018-09-28T23:03:53.443Z,102566.49
2018-09-28T23:08:55.630Z,102570.34
2018-09-28T23:13:57.811Z,102578.22
2018-09-28T23:19:00.052Z,102573.93
2018-09-28T23:24:02.240Z,102572.34
2018-09-28T23:29:04.478Z,102583.12
2018-09-28T23:34:06.818Z,102575.72
2018-09-28T23:39:10.062Z,102584.02
2018-09-28T23:44:12.208Z,102584.53
2018-09-28T23:49:14.345Z,102585.05
2018-09-28T23:54:16.509Z,102589.63
2018-09-28T23:59:18.655Z,102598.28
